Eco Leader — SVA3647 — position and weather

sailwx.info

Track history (hours):
 
Tides and Currents Weather Stations Pressure Air Temp Water Temp Dewpoint Dewpoint Depression Visibility Wind Speed Wind Dir Waves Ship Positions

Eco Leader

Last reported at 2017-Sep-17 10:39 UTC. Time now 2017-Sep-19 20:37 UTC.
Position N 37°54' E 023°40'.

Length 24 m; draft 1.3 m.

Type: Pollution control. MMSI: 239641100.

Date/timePositionNaut miles runAvg speedWind from/ knotsBaromVisibWave heightAir tempDewpointWater temp
2017-Sep-17 10:39N 37°54' E 023°40'  
2017-Sep-14 14:59N 37°57' E 023°36'0 0.0
2017-Sep-14 14:30N 37°57' E 023°36'0 0.0
2017-Sep-14 14:00N 37°57' E 023°36'2 4.0
2017-Sep-14 13:30N 37°56' E 023°38'3 5.8
2017-Sep-14 13:00N 37°56' E 023°41'0 0.2
2017-Sep-14 12:30N 37°56' E 023°41'0 0.3
2017-Sep-14 12:00N 37°56' E 023°41'1 1.7
2017-Sep-14 11:30N 37°56' E 023°40'2 3.5
2017-Sep-14 11:00N 37°56' E 023°38'0 0.5
2017-Sep-14 10:30N 37°56' E 023°37'1 2.8
2017-Sep-14 10:00N 37°57' E 023°36'0 0.0
2017-Sep-13 16:57N 37°57' E 023°36'2 3.6
2017-Sep-13 16:30N 37°56' E 023°38'0 0.0
2017-Sep-13 16:00N 37°56' E 023°38'0 0.1
2017-Sep-13 14:39N 37°56' E 023°37'0 0.0
2017-Sep-13 14:20N 37°56' E 023°37'0 1.3
2017-Sep-13 14:01N 37°56' E 023°37'1 2.3
2017-Sep-13 13:30N 37°57' E 023°36'  
Track history (hours):
 
Tides and Currents Weather Stations Pressure Air Temp Water Temp Dewpoint Dewpoint Depression Visibility Wind Speed Wind Dir Waves Ship Positions

Eco Leader

Last reported at 2017-Sep-17 10:39 UTC. Time now 2017-Sep-19 20:37 UTC.
Position N 37°54' E 023°40'.

Length 24 m; draft 1.3 m.

Type: Pollution control. MMSI: 239641100.

Date/timePositionNaut miles runAvg speedWind from/ knotsBaromVisibWave heightAir tempDewpointWater temp
2017-Sep-17 10:39N 37°54' E 023°40'  
2017-Sep-14 14:59N 37°57' E 023°36'0 0.0
2017-Sep-14 14:30N 37°57' E 023°36'0 0.0
2017-Sep-14 14:00N 37°57' E 023°36'2 4.0
2017-Sep-14 13:30N 37°56' E 023°38'3 5.8
2017-Sep-14 13:00N 37°56' E 023°41'0 0.2
2017-Sep-14 12:30N 37°56' E 023°41'0 0.3
2017-Sep-14 12:00N 37°56' E 023°41'1 1.7
2017-Sep-14 11:30N 37°56' E 023°40'2 3.5
2017-Sep-14 11:00N 37°56' E 023°38'0 0.5
2017-Sep-14 10:30N 37°56' E 023°37'1 2.8
2017-Sep-14 10:00N 37°57' E 023°36'0 0.0
2017-Sep-13 16:57N 37°57' E 023°36'2 3.6
2017-Sep-13 16:30N 37°56' E 023°38'0 0.0
2017-Sep-13 16:00N 37°56' E 023°38'0 0.1
2017-Sep-13 14:39N 37°56' E 023°37'0 0.0
2017-Sep-13 14:20N 37°56' E 023°37'0 1.3
2017-Sep-13 14:01N 37°56' E 023°37'1 2.3
2017-Sep-13 13:30N 37°57' E 023°36'  

Dump ship's entire track history